METAR AND TAF INFORMATION
METAR FOR VTBU
ADDS - METARS form results

(0412 UTC 26 August 2019)
Data provider http://aviationweather.gov/metar/data/
 
METAR text: VTBU 260400Z 28014KT 9999 FEW020 BKN100 29/21 Q1009 NOSIG
Conditions at: VTBU (RAYONG/U-TAPHAO , TH) observed 0400 UTC 26 August 2019
Temperature: 29.0°C (84°F)
Dewpoint: 21.0°C (70°F) [RH = 62%]
Pressure (altimeter): 29.79 inches Hg (1009.0 mb)
Winds: from the W (280 degrees) at 16 MPH (14 knots; 7.2 m/s)
Visibility: 6 or more miles (10+ km)
Ceiling: 10000 feet AGL
Clouds: few clouds at 2000 feet AGL
broken clouds at 10000 feet AGL
Weather: no significant weather observed at this time

METAR text: VTBU 260330Z 29010KT 9999 FEW020 BKN100 28/22 Q1009 NOSIG
Conditions at: VTBU (RAYONG/U-TAPHAO , TH) observed 0330 UTC 26 August 2019
Temperature: 28.0°C (82°F)
Dewpoint: 22.0°C (72°F) [RH = 70%]
Pressure (altimeter): 29.79 inches Hg (1009.0 mb)
Winds: from the WNW (290 degrees) at 12 MPH (10 knots; 5.1 m/s)
Visibility: 6 or more miles (10+ km)
Ceiling: 10000 feet AGL
Clouds: few clouds at 2000 feet AGL
broken clouds at 10000 feet AGL
Weather: no significant weather observed at this time

Forecast for: VTBU (RAYONG/U-TAPHAO , TH)
Text: TAF VTBU 252300Z 2600/2624 24010KT 9999 FEW020 SCT100
Forecast period: 0000 to 1100 UTC 26 August 2019
Forecast type: FROM: standard forecast or significant change
Winds: from the WSW (240 degrees) at 12 MPH (10 knots; 5.1 m/s)
Visibility: 6 or more miles 10+ km)
Ceiling: at least 12,000 feet AGL
Clouds: few clouds at 2000 feet AGL
scattered clouds at 10000 feet AGL
Weather: no significant weather forecast for this period
Text: BECMG 2611/2613 25005KT
Forecast period: 1100 UTC 26 August 2019 to 0000 UTC 27 August 2019
Forecast type: BECOMING: Conditions expected to become as follows by 1300 UTC 26 August 2019
Winds: from the WSW (250 degrees) at 6 MPH (5 knots; 2.6 m/s)
Visibility: 6 or more miles 10+ km)
Ceiling: at least 12,000 feet AGL
Clouds: few clouds at 2000 feet AGL
scattered clouds at 10000 feet AGL
Weather: no significant weather forecast for this period

 AIRPORT MAP

 RUNWAY INFORMATION

 AIRPORT FREQUENCIES
Type APP Name APP Frequency 119.7 MHZ
Type GND Name GND Frequency 121.9 MHZ
Type TWR Name TWR Frequency 118.3 MHZ

 AIRPORT NEAR NAVIGATION AIDS
Type TACAN Name U Taphao Frequency 115800 KHZ
Type VOR-DME Name U Taphao Frequency 110800 KHZ
Type NDB Name U Taphao Frequency 414 KHZ



2018 Air Astana Virtual Airline